Flight Information

DEPARTURE
REDDING, CA
Elevation:
504
Runways:
12/30 - 5067x150 - ASPH-G
16/34 - 7003x150 - ASPH-G
ATIS:
124.1
Ground:
121.7
Tower:
REDDING TOWER 119.8
DESTINATION
,
Elevation:
TPA:
1000 (est.)


6837.7 NM68° True-17° Var51° HDG

Flight Plan:
(click to file on line)

1. Type
2. Aircraft Identification
3. Aircraft Type / Special Equipment
4. True Airspeed
kts
5. Departure Airport
(ICAO code)
6. Arriving Airport
(ICAO code)
7. Cruising Altitude
ft
8. Alternate Airport
(ICAO code)
9. Route of Flight
10. Remarks


00:00:00 Departure ATIS: Destination ATIS:

Clearance Limit:
Route:
Altitude: Expect in minutes
Frequency:
Transponder: (7500 Hijack / 7600 Lost Comms / 7700 Emergency)


KRDD 281253Z AUTO 36015G23KT 10SM FU CLR 27/M03 A3002 RMK AO2 SLP158 T02671028
Time: 2020-09-28T12:53:00Z
1601298760
Winds: 360 @ 15 kts
Gusting:23 kts
Visibility: 10.0 sm
Clouds (AGL): CLR
Temperature: 26.7 C
Dew Point: -2.8 C
Pressure: 30.02067 in Hgbr


Notes:

Data extracted from FAA Digital Chart Supplement. Effective: 0901Z Thursday, Sep 10, 2020 to 0901Z Thursday, Nov 5, 2020
Current ATIS data is provided courtisy of PilotEdge.